Time;durP1;ratioP1;P1;durP2;ratioP2;P2;SDS_P1;SDS_P2;PMS_P1;PMS_P2;Temp;Humidity;BMP_temperature;BMP_pressure;BME280_temperature;BME280_humidity;BME280_pressure;Samples;Min_cycle;Max_cycle;Signal;HPM_P1;HPM_P2
2021/03/20 00:01:51;;;;;;;25.43;15.67;;;5.40;53.30;;;;;;5116860;28;20525;-66
2021/03/20 00:04:18;;;;;;;32.43;16.93;;;5.40;53.30;;;;;;5116549;28;20031;-66
2021/03/20 00:06:48;;;;;;;31.47;17.23;;;5.40;53.90;;;;;;5116616;28;20031;-66
2021/03/20 00:09:18;;;;;;;28.07;16.87;;;5.40;53.60;;;;;;5116705;28;20024;-66
2021/03/20 00:11:46;;;;;;;27.10;15.77;;;5.40;53.30;;;;;;5116539;28;20055;-66
2021/03/20 00:14:14;;;;;;;28.30;17.57;;;5.40;53.40;;;;;;5116138;28;20043;-67
2021/03/20 00:16:40;;;;;;;26.73;15.40;;;5.30;53.00;;;;;;5116268;28;20024;-66
2021/03/20 00:19:06;;;;;;;27.37;15.07;;;5.30;53.30;;;;;;5116010;28;20034;-66
2021/03/20 00:21:32;;;;;;;26.60;14.40;;;5.20;53.30;;;;;;5116311;28;20024;-66
2021/03/20 00:23:58;;;;;;;20.17;13.23;;;5.20;53.50;;;;;;5116356;28;20099;-66
2021/03/20 00:26:24;;;;;;;17.57;12.00;;;5.20;53.20;;;;;;5116132;28;20094;-65
2021/03/20 00:28:52;;;;;;;21.53;12.50;;;5.10;53.10;;;;;;5116202;28;20022;-66
2021/03/20 00:31:17;;;;;;;20.23;11.97;;;5.10;53.10;;;;;;5116041;28;20036;-66
2021/03/20 00:33:44;;;;;;;19.87;10.70;;;5.10;53.50;;;;;;5115850;28;20430;-66
2021/03/20 00:36:12;;;;;;;24.07;12.50;;;5.10;53.20;;;;;;5115989;28;20020;-66
2021/03/20 00:38:38;;;;;;;17.33;11.00;;;5.10;54.00;;;;;;5115703;28;20031;-66
2021/03/20 00:41:05;;;;;;;17.80;10.57;;;5.10;54.40;;;;;;5116140;28;20022;-65
2021/03/20 00:43:31;;;;;;;17.00;10.27;;;5.00;53.80;;;;;;5116167;28;20514;-66
2021/03/20 00:45:57;;;;;;;16.40;9.87;;;5.00;53.70;;;;;;5115835;28;20028;-66
2021/03/20 00:48:27;;;;;;;19.07;10.97;;;5.00;53.80;;;;;;5115618;28;20019;-66
2021/03/20 00:50:53;;;;;;;15.40;10.70;;;5.00;53.90;;;;;;5114568;28;20383;-66
2021/03/20 00:53:19;;;;;;;17.57;10.63;;;5.00;53.70;;;;;;5115742;28;20102;-66
2021/03/20 00:55:46;;;;;;;18.57;10.43;;;5.00;53.30;;;;;;5115678;28;20027;-66
2021/03/20 00:58:18;;;;;;;17.30;11.57;;;5.00;53.30;;;;;;5115449;28;20106;-66
2021/03/20 01:00:44;;;;;;;19.98;11.60;;;5.00;53.80;;;;;;5115452;28;20039;-65
2021/03/20 01:03:10;;;;;;;20.57;11.33;;;5.00;54.10;;;;;;5115516;28;20027;-66
2021/03/20 01:05:36;;;;;;;19.30;11.70;;;4.90;53.80;;;;;;5115515;28;20028;-66
2021/03/20 01:08:02;;;;;;;17.17;10.87;;;4.90;53.50;;;;;;5115309;28;20372;-66
2021/03/20 01:10:28;;;;;;;21.97;10.67;;;4.90;53.60;;;;;;5115294;28;20023;-66
2021/03/20 01:12:53;;;;;;;17.50;11.47;;;4.80;53.70;;;;;;5115395;28;20023;-66
2021/03/20 01:15:19;;;;;;;24.60;12.47;;;4.80;53.70;;;;;;5115606;28;20032;-66
2021/03/20 01:17:45;;;;;;;18.20;11.80;;;4.80;53.80;;;;;;5115094;28;20076;-66
2021/03/20 01:20:12;;;;;;;17.63;11.53;;;4.80;53.80;;;;;;5115179;28;20063;-65
2021/03/20 01:22:38;;;;;;;23.87;11.83;;;4.80;53.80;;;;;;5115227;28;20077;-65
2021/03/20 01:25:05;;;;;;;17.67;11.07;;;4.70;53.70;;;;;;5115129;28;20023;-66
2021/03/20 01:27:31;;;;;;;22.17;11.43;;;4.70;54.00;;;;;;5114782;28;20031;-65
2021/03/20 01:29:57;;;;;;;18.53;11.37;;;4.70;54.10;;;;;;5114734;28;20027;-66
2021/03/20 01:32:23;;;;;;;23.20;11.03;;;4.60;54.00;;;;;;5114647;28;20510;-66
2021/03/20 01:34:48;;;;;;;15.90;10.57;;;4.60;54.10;;;;;;5114707;28;20039;-65
2021/03/20 01:37:14;;;;;;;19.53;11.10;;;4.60;54.10;;;;;;5114889;28;20099;-66
2021/03/20 01:39:39;;;;;;;18.90;10.30;;;4.60;54.30;;;;;;5114581;28;20024;-66
2021/03/20 01:42:07;;;;;;;14.90;9.20;;;4.50;54.20;;;;;;5114711;28;20034;-66
2021/03/20 01:44:33;;;;;;;18.87;9.80;;;4.50;54.20;;;;;;5114544;28;20036;-66
2021/03/20 01:47:01;;;;;;;14.53;9.83;;;4.50;54.20;;;;;;5115142;28;20030;-66
2021/03/20 01:49:37;;;;;;;19.20;10.90;;;4.40;54.30;;;;;;5114756;28;20024;-66
2021/03/20 01:52:22;;;;;;;18.80;11.47;;;4.40;54.40;;;;;;5114490;28;20031;-66
2021/03/20 01:55:13;;;;;;;18.80;10.93;;;4.40;54.40;;;;;;5114156;28;20372;-66
2021/03/20 01:57:45;;;;;;;17.00;10.73;;;4.40;54.40;;;;;;5113210;28;20022;-66
2021/03/20 02:00:13;;;;;;;17.05;11.27;;;4.40;54.70;;;;;;5111618;28;20039;-66
2021/03/20 02:02:39;;;;;;;18.33;10.93;;;4.30;54.90;;;;;;5111360;28;20498;-66
2021/03/20 02:05:06;;;;;;;19.80;11.53;;;4.30;54.90;;;;;;5112810;28;20028;-66
2021/03/20 02:07:32;;;;;;;15.80;11.03;;;4.30;54.80;;;;;;5114305;28;20035;-73
2021/03/20 02:09:57;;;;;;;23.33;11.10;;;4.30;54.70;;;;;;5113912;28;20046;-74
2021/03/20 02:12:31;;;;;;;15.93;9.83;;;4.30;54.70;;;;;;5113651;28;20092;-66
2021/03/20 02:15:04;;;;;;;15.37;9.90;;;4.30;54.60;;;;;;5113947;28;20044;-73
2021/03/20 02:18:07;;;;;;;15.87;10.07;;;4.20;54.50;;;;;;5113688;28;20050;-66
2021/03/20 02:21:15;;;;;;;16.80;9.83;;;4.20;54.60;;;;;;5113659;28;20050;-66
2021/03/20 02:23:59;;;;;;;17.40;10.13;;;4.20;54.50;;;;;;5071134;28;20067;-74
2021/03/20 02:27:02;;;;;;;15.03;9.20;;;4.20;54.40;;;;;;5071441;28;20025;-73
2021/03/20 02:30:24;;;;;;;17.30;9.10;;;4.10;55.00;;;;;;5108128;28;20032;-66
2021/03/20 02:32:56;;;;;;;18.37;9.73;;;4.10;54.70;;;;;;5070707;28;20052;-72
2021/03/20 02:35:33;;;;;;;14.80;9.50;;;4.00;54.80;;;;;;5070857;28;20047;-68
2021/03/20 02:38:20;;;;;;;17.30;9.27;;;4.00;55.30;;;;;;5101440;28;20043;-66
2021/03/20 02:41:11;;;;;;;16.73;10.07;;;3.90;55.10;;;;;;5113705;28;20104;-66
2021/03/20 02:43:44;;;;;;;14.70;9.40;;;3.90;55.80;;;;;;5113328;28;20524;-67
2021/03/20 02:46:21;;;;;;;15.80;9.45;;;3.90;55.40;;;;;;5113650;28;20039;-72
2021/03/20 02:49:09;;;;;;;14.73;8.50;;;3.90;55.30;;;;;;5113335;28;20045;-73
2021/03/20 02:51:53;;;;;;;15.30;9.20;;;3.90;55.80;;;;;;5113146;28;20050;-73
2021/03/20 02:54:26;;;;;;;17.70;8.67;;;3.90;55.60;;;;;;5113172;28;20123;-66
2021/03/20 02:57:16;;;;;;;13.37;8.33;;;3.80;55.60;;;;;;5113513;28;20024;-65
2021/03/20 02:59:50;;;;;;;14.13;8.20;;;3.80;55.70;;;;;;5113141;28;20038;-66
2021/03/20 03:02:18;;;;;;;12.03;8.00;;;3.80;55.60;;;;;;5113587;28;20038;-66
2021/03/20 03:04:49;;;;;;;14.77;8.13;;;3.70;55.80;;;;;;5113514;28;20027;-65
2021/03/20 03:07:25;;;;;;;14.83;7.30;;;3.70;55.80;;;;;;5113420;28;20396;-65
2021/03/20 03:10:00;;;;;;;14.23;7.97;;;3.70;55.70;;;;;;5113392;28;20435;-66
2021/03/20 03:12:39;;;;;;;14.83;8.10;;;3.70;55.70;;;;;;5113608;28;20019;-66
2021/03/20 03:15:09;;;;;;;12.27;8.13;;;3.70;55.60;;;;;;5113530;28;20476;-66
2021/03/20 03:17:41;;;;;;;13.90;8.57;;;3.70;55.60;;;;;;5113485;28;20693;-66
2021/03/20 03:20:21;;;;;;;15.03;8.33;;;3.70;55.80;;;;;;5112085;28;20380;-65
2021/03/20 03:23:01;;;;;;;17.93;8.97;;;3.70;55.80;;;;;;5115776;28;20068;-66
2021/03/20 03:25:29;;;;;;;14.77;9.07;;;3.70;55.80;;;;;;5117680;27;20024;-66
2021/03/20 03:27:59;;;;;;;16.70;9.43;;;3.70;56.10;;;;;;5117492;28;20020;-66
2021/03/20 03:30:26;;;;;;;15.47;9.87;;;3.70;56.10;;;;;;5117238;28;20095;-66
2021/03/20 03:33:08;;;;;;;15.13;9.60;;;3.60;55.90;;;;;;5117127;28;20051;-65
2021/03/20 03:35:42;;;;;;;13.27;8.73;;;3.60;56.00;;;;;;5117179;27;20030;-66
2021/03/20 03:38:18;;;;;;;16.07;8.37;;;3.50;56.50;;;;;;5117260;28;20526;-66
2021/03/20 03:40:59;;;;;;;11.40;7.73;;;3.60;56.30;;;;;;5117099;28;20533;-74
2021/03/20 03:43:24;;;;;;;11.20;7.00;;;3.60;56.50;;;;;;5116989;28;20083;-66
2021/03/20 03:45:51;;;;;;;11.77;7.27;;;3.50;56.50;;;;;;5117014;28;20102;-66
2021/03/20 03:48:19;;;;;;;10.13;6.87;;;3.50;56.50;;;;;;5116949;28;20610;-66
2021/03/20 03:50:48;;;;;;;10.07;6.00;;;3.50;56.70;;;;;;5117060;27;20032;-66
2021/03/20 03:53:18;;;;;;;9.33;6.13;;;3.50;56.60;;;;;;5117049;28;20027;-66
2021/03/20 03:55:44;;;;;;;11.00;6.20;;;3.40;56.40;;;;;;5116981;28;20429;-66
2021/03/20 03:58:37;;;;;;;9.77;5.90;;;3.50;56.60;;;;;;5116598;28;20020;-66
2021/03/20 04:01:21;;;;;;;10.70;6.25;;;3.40;56.80;;;;;;5116754;28;20016;-66
2021/03/20 04:03:58;;;;;;;10.67;5.90;;;3.40;57.00;;;;;;5116482;28;20076;-65
2021/03/20 04:06:39;;;;;;;6.13;4.03;;;3.40;57.30;;;;;;5116895;28;20039;-66
2021/03/20 04:09:45;;;;;;;8.67;4.53;;;3.30;57.30;;;;;;5116473;28;20491;-66
2021/03/20 04:12:19;;;;;;;7.17;3.70;;;3.40;57.40;;;;;;5116719;28;20020;-65
2021/03/20 04:15:08;;;;;;;6.63;3.77;;;3.40;57.40;;;;;;5116414;28;20491;-66
2021/03/20 04:17:47;;;;;;;5.60;3.43;;;3.40;57.20;;;;;;5108925;28;20066;-66
2021/03/20 04:20:32;;;;;;;5.00;3.23;;;3.40;57.20;;;;;;5116281;28;20030;-65
2021/03/20 04:23:05;;;;;;;7.43;3.83;;;3.40;57.00;;;;;;5116072;28;20020;-66
2021/03/20 04:25:53;;;;;;;7.30;3.70;;;3.40;56.80;;;;;;5115004;28;20118;-66
2021/03/20 04:28:40;;;;;;;7.50;3.60;;;3.50;56.70;;;;;;5115874;28;20491;-66
2021/03/20 04:31:20;;;;;;;4.90;3.07;;;3.50;56.50;;;;;;5116110;28;20035;-66
2021/03/20 04:33:59;;;;;;;5.87;3.50;;;3.50;56.50;;;;;;5115118;28;20063;-74
2021/03/20 04:36:35;;;;;;;6.83;3.27;;;3.60;56.40;;;;;;5116075;28;20024;-66
2021/03/20 04:39:04;;;;;;;5.03;3.63;;;3.60;56.40;;;;;;5116039;28;20027;-66
2021/03/20 04:41:32;;;;;;;5.57;3.20;;;3.60;56.70;;;;;;5115892;28;20023;-66
2021/03/20 04:43:58;;;;;;;10.63;3.70;;;3.60;56.60;;;;;;5115923;28;20464;-65
2021/03/20 04:46:29;;;;;;;5.40;3.40;;;3.70;56.70;;;;;;5116029;28;20023;-66
2021/03/20 04:49:27;;;;;;;5.40;3.30;;;3.60;56.90;;;;;;5115766;28;20016;-66
2021/03/20 04:52:15;;;;;;;4.73;3.13;;;3.70;56.70;;;;;;5115548;28;20122;-66
2021/03/20 04:54:41;;;;;;;7.53;3.87;;;3.70;56.60;;;;;;5115620;28;20154;-66
2021/03/20 04:57:09;;;;;;;10.10;3.60;;;3.70;56.80;;;;;;5115494;28;20511;-65
2021/03/20 04:59:53;;;;;;;5.97;3.70;;;3.70;56.80;;;;;;5115423;28;20387;-66
2021/03/20 05:02:22;;;;;;;6.57;3.73;;;3.70;56.90;;;;;;5115480;28;20165;-65
2021/03/20 05:07:37;;;;;;;5.77;3.70;;;3.70;56.90;;;;;;5115890;28;20081;-66
2021/03/20 05:10:07;;;;;;;8.50;4.47;;;3.60;56.90;;;;;;5115458;28;20420;-66
2021/03/20 05:12:34;;;;;;;9.10;3.67;;;3.60;56.90;;;;;;5115019;28;20546;-66
2021/03/20 05:15:20;;;;;;;7.97;4.33;;;3.60;56.90;;;;;;5115231;28;20046;-66
2021/03/20 05:17:45;;;;;;;7.53;4.13;;;3.60;57.90;;;;;;5115508;27;20086;-66
2021/03/20 05:20:11;;;;;;;6.97;3.83;;;3.60;57.50;;;;;;5115082;28;20051;-66
2021/03/20 05:22:37;;;;;;;5.70;4.00;;;3.60;57.40;;;;;;5115010;28;20472;-66
2021/03/20 05:25:04;;;;;;;16.60;4.03;;;3.60;57.30;;;;;;5115115;28;20024;-66
2021/03/20 05:27:33;;;;;;;9.70;3.67;;;3.60;57.40;;;;;;5114916;28;20065;-66
2021/03/20 05:29:59;;;;;;;9.60;3.60;;;3.60;57.50;;;;;;5115009;28;20023;-66
2021/03/20 05:32:31;;;;;;;6.33;3.87;;;3.60;57.80;;;;;;5114636;28;20043;-66
2021/03/20 05:34:59;;;;;;;6.97;3.43;;;3.60;57.80;;;;;;5114661;28;20067;-66
2021/03/20 05:37:31;;;;;;;12.87;4.10;;;3.60;57.80;;;;;;5115134;28;20541;-65
2021/03/20 05:39:57;;;;;;;11.45;4.13;;;3.60;57.60;;;;;;5115237;27;20445;-66
2021/03/20 05:42:35;;;;;;;9.67;4.67;;;3.60;57.40;;;;;;5114828;28;20031;-65
2021/03/20 05:45:17;;;;;;;7.20;4.07;;;3.60;57.20;;;;;;5114753;28;20028;-66
2021/03/20 05:47:59;;;;;;;6.13;3.88;;;3.60;56.60;;;;;;5114607;28;20098;-66
2021/03/20 05:50:59;;;;;;;7.60;5.00;;;3.60;56.30;;;;;;5113418;28;20020;-66
2021/03/20 05:53:58;;;;;;;5.43;4.00;;;3.70;56.00;;;;;;5114525;28;20028;-66
2021/03/20 05:56:42;;;;;;;7.80;4.70;;;3.80;55.20;;;;;;5114178;28;20027;-65
2021/03/20 05:59:35;;;;;;;8.77;4.90;;;3.80;54.90;;;;;;5114531;28;20523;-65
2021/03/20 06:02:23;;;;;;;6.57;4.50;;;3.90;54.50;;;;;;5114511;28;20068;-66
2021/03/20 06:05:01;;;;;;;6.30;4.27;;;3.90;54.20;;;;;;5114186;28;20015;-66
2021/03/20 06:07:49;;;;;;;8.93;4.77;;;3.90;53.80;;;;;;5114228;28;20030;-66
2021/03/20 06:10:49;;;;;;;8.17;4.50;;;4.00;53.50;;;;;;5114131;28;20080;-66
2021/03/20 06:13:17;;;;;;;7.47;4.87;;;4.10;52.90;;;;;;5114040;28;20114;-66
2021/03/20 06:16:08;;;;;;;7.73;4.83;;;4.20;52.70;;;;;;5114270;28;20144;-66
2021/03/20 06:19:15;;;;;;;8.70;4.93;;;4.20;52.60;;;;;;5113799;28;20019;-66
2021/03/20 06:22:18;;;;;;;9.00;6.07;;;4.30;52.60;;;;;;5114155;28;20051;-66
2021/03/20 06:25:09;;;;;;;9.88;5.55;;;4.30;52.60;;;;;;5114101;28;20095;-66
2021/03/20 06:27:41;;;;;;;9.53;5.77;;;4.40;52.50;;;;;;5113778;28;20391;-66
2021/03/20 06:30:10;;;;;;;9.97;5.70;;;4.40;52.50;;;;;;5113865;28;20016;-66
2021/03/20 06:32:45;;;;;;;7.53;5.03;;;4.50;52.50;;;;;;5113828;28;20338;-66
2021/03/20 06:35:16;;;;;;;7.47;5.00;;;4.50;52.40;;;;;;5113899;28;20031;-66
2021/03/20 06:37:57;;;;;;;8.40;5.60;;;4.60;52.30;;;;;;5113799;28;20387;-66
2021/03/20 06:40:46;;;;;;;10.77;5.33;;;;;;;;;;5113840;28;20502;-66
2021/03/20 06:43:14;;;;;;;9.33;5.67;;;4.70;51.70;;;;;;5107943;28;20115;-66
2021/03/20 06:45:40;;;;;;;8.47;5.63;;;4.80;52.70;;;;;;5113147;28;20031;-66
2021/03/20 06:48:14;;;;;;;9.00;5.70;;;4.90;52.70;;;;;;5113343;28;20019;-66
2021/03/20 06:50:52;;;;;;;9.33;6.17;;;4.90;52.20;;;;;;5113536;28;20019;-66
2021/03/20 06:53:25;;;;;;;11.43;5.93;;;5.00;52.20;;;;;;5113542;28;20312;-66
2021/03/20 06:55:51;;;;;;;10.23;5.80;;;5.00;52.20;;;;;;5113723;28;20028;-73
2021/03/20 06:58:30;;;;;;;14.30;6.77;;;5.10;52.50;;;;;;5112756;28;20020;-75
2021/03/20 07:01:03;;;;;;;8.93;6.60;;;5.10;52.60;;;;;;5113540;28;20046;-66
2021/03/20 07:03:44;;;;;;;7.43;5.50;;;5.20;52.80;;;;;;5113591;28;20478;-66
2021/03/20 07:06:37;;;;;;;8.47;5.73;;;5.20;52.70;;;;;;5113313;28;20387;-66
2021/03/20 07:09:06;;;;;;;9.00;6.15;;;5.40;52.40;;;;;;5113283;28;20024;-66
2021/03/20 07:11:34;;;;;;;9.13;6.23;;;5.40;52.60;;;;;;5113650;28;20080;-66
2021/03/20 07:14:07;;;;;;;8.20;5.83;;;5.50;52.70;;;;;;5113694;28;20039;-66
2021/03/20 07:19:59;;;;;;;10.70;6.50;;;5.60;52.40;;;;;;5113056;28;20035;-66
2021/03/20 07:22:34;;;;;;;9.20;6.37;;;5.70;52.50;;;;;;5113314;28;20026;-66
2021/03/20 07:25:12;;;;;;;8.47;5.70;;;5.80;52.90;;;;;;5110617;28;20081;-66
2021/03/20 07:27:37;;;;;;;9.07;6.10;;;5.90;52.80;;;;;;5110608;28;20099;-67
2021/03/20 07:30:27;;;;;;;11.83;6.07;;;6.00;52.60;;;;;;5111670;28;20131;-67
2021/03/20 07:32:53;;;;;;;8.50;5.53;;;6.00;52.30;;;;;;5112552;28;20046;-70
2021/03/20 07:35:21;;;;;;;8.80;5.90;;;6.10;52.30;;;;;;5113166;28;20432;-66
2021/03/20 07:37:52;;;;;;;8.73;6.10;;;6.10;51.80;;;;;;5112798;28;20471;-75
2021/03/20 07:40:24;;;;;;;9.40;6.60;;;6.20;51.70;;;;;;5112782;28;20077;-66
2021/03/20 07:42:49;;;;;;;6.60;5.50;;;6.30;51.50;;;;;;5113085;28;20039;-65
2021/03/20 07:45:18;;;;;;;7.93;5.07;;;6.40;51.60;;;;;;5113154;28;20040;-66
2021/03/20 07:47:55;;;;;;;7.13;5.00;;;6.50;51.90;;;;;;5113204;28;20020;-66
2021/03/20 07:50:24;;;;;;;8.17;5.43;;;6.50;51.90;;;;;;5111637;28;20051;-66
2021/03/20 07:53:04;;;;;;;8.40;5.53;;;6.60;51.50;;;;;;5112704;28;20034;-66
2021/03/20 07:55:50;;;;;;;8.17;5.43;;;6.70;50.80;;;;;;5113097;28;20035;-73
2021/03/20 07:58:22;;;;;;;18.97;6.30;;;6.60;50.00;;;;;;5110115;28;20063;-66
2021/03/20 08:00:55;;;;;;;7.17;5.30;;;6.70;50.20;;;;;;5109233;28;20024;-66
2021/03/20 08:03:27;;;;;;;7.60;5.33;;;6.70;50.20;;;;;;5111328;28;20257;-74
2021/03/20 08:06:14;;;;;;;9.52;5.63;;;6.80;50.20;;;;;;5112471;28;20407;-75
2021/03/20 08:08:40;;;;;;;12.63;5.30;;;6.90;49.80;;;;;;5102150;28;20098;-76
2021/03/20 08:11:25;;;;;;;11.50;5.47;;;6.90;49.90;;;;;;5116068;28;20035;-75
2021/03/20 08:13:57;;;;;;;7.57;5.37;;;7.00;49.60;;;;;;5116031;28;20020;-77
2021/03/20 08:16:23;;;;;;;8.10;5.50;;;7.00;49.80;;;;;;5115868;28;20079;-67
2021/03/20 08:18:53;;;;;;;7.97;5.80;;;7.10;49.40;;;;;;5114446;28;20034;-75
2021/03/20 08:21:36;;;;;;;6.70;4.70;;;7.20;49.60;;;;;;5115740;28;20379;-75
2021/03/20 08:24:08;;;;;;;7.97;5.77;;;7.20;49.00;;;;;;5107880;28;20050;-74
2021/03/20 08:26:50;;;;;;;8.70;5.00;;;7.30;48.60;;;;;;5095296;28;20024;-66
2021/03/20 08:29:34;;;;;;;6.23;4.87;;;7.30;48.50;;;;;;5095151;28;20028;-66
2021/03/20 08:32:47;;;;;;;6.40;4.23;;;7.40;48.70;;;;;;5093695;28;20070;-66
2021/03/20 08:35:25;;;;;;;9.27;4.70;;;7.40;48.70;;;;;;5087603;28;20440;-66
2021/03/20 08:38:18;;;;;;;6.90;5.00;;;7.50;48.30;;;;;;5105151;28;20054;-71
2021/03/20 08:41:05;;;;;;;8.68;4.78;;;7.60;48.00;;;;;;5115732;28;20430;-66
2021/03/20 08:44:08;;;;;;;6.73;4.93;;;7.60;47.50;;;;;;5115332;28;20398;-66
2021/03/20 08:47:11;;;;;;;8.15;4.95;;;7.70;47.20;;;;;;5115030;28;20426;-77
2021/03/20 08:50:09;;;;;;;7.43;4.70;;;7.80;47.30;;;;;;5115094;28;20019;-66
2021/03/20 08:52:44;;;;;;;7.60;4.53;;;7.90;48.30;;;;;;5048946;28;20458;-65
2021/03/20 08:55:34;;;;;;;6.30;4.13;;;8.00;47.00;;;;;;5054859;28;20043;-65
2021/03/20 08:58:39;;;;;;;6.23;4.53;;;8.00;46.80;;;;;;5055192;28;20029;-66
2021/03/20 09:01:26;;;;;;;5.37;4.17;;;8.10;46.10;;;;;;5054895;28;20504;-76
2021/03/20 09:03:57;;;;;;;4.90;3.53;;;8.10;45.30;;;;;;5054394;28;20103;-66
2021/03/20 09:06:35;;;;;;;5.57;4.07;;;8.10;45.30;;;;;;5052944;28;20025;-65
2021/03/20 09:09:25;;;;;;;7.57;3.43;;;8.20;45.70;;;;;;5054100;28;20040;-65
2021/03/20 09:12:06;;;;;;;5.80;3.30;;;8.30;45.30;;;;;;5054364;28;20037;-74
2021/03/20 09:14:40;;;;;;;4.20;2.90;;;8.40;44.90;;;;;;5054439;28;20041;-74
2021/03/20 09:17:14;;;;;;;3.67;2.50;;;8.50;45.10;;;;;;5054655;28;20025;-65
2021/03/20 09:19:52;;;;;;;3.53;2.90;;;8.70;44.50;;;;;;5053936;28;20036;-67
2021/03/20 09:22:21;;;;;;;3.90;3.07;;;8.80;43.90;;;;;;5054452;28;20063;-65
2021/03/20 09:24:55;;;;;;;4.23;2.70;;;8.90;43.40;;;;;;5054483;28;20432;-65
2021/03/20 09:27:58;;;;;;;3.20;2.33;;;9.00;43.10;;;;;;5054243;28;20101;-65
2021/03/20 09:30:53;;;;;;;3.78;3.00;;;9.00;42.60;;;;;;5054305;28;20086;-66
2021/03/20 09:33:28;;;;;;;4.30;2.97;;;9.10;42.80;;;;;;5053993;28;20128;-65
2021/03/20 09:36:19;;;;;;;3.47;2.63;;;9.20;43.40;;;;;;5054407;28;20036;-67
2021/03/20 09:38:48;;;;;;;2.90;2.00;;;9.30;43.60;;;;;;5053639;28;20393;-66
2021/03/20 09:41:13;;;;;;;3.30;2.50;;;9.40;42.80;;;;;;5054119;28;20047;-66
2021/03/20 09:44:06;;;;;;;4.93;2.47;;;9.50;42.40;;;;;;5054041;28;20482;-65
2021/03/20 09:46:38;;;;;;;2.85;2.20;;;9.50;41.20;;;;;;5054083;28;20097;-65
2021/03/20 09:49:07;;;;;;;3.77;2.40;;;9.50;41.40;;;;;;5053845;28;20029;-65
2021/03/20 09:51:51;;;;;;;4.27;2.30;;;9.60;41.50;;;;;;5053777;28;20028;-65
2021/03/20 09:54:22;;;;;;;4.67;2.80;;;9.60;42.30;;;;;;5053715;28;20036;-65
2021/03/20 09:57:19;;;;;;;7.63;3.20;;;9.70;41.00;;;;;;5053999;28;20371;-66
2021/03/20 09:59:45;;;;;;;6.03;3.70;;;9.80;41.00;;;;;;5054063;28;20263;-65
2021/03/20 10:02:10;;;;;;;8.37;3.43;;;9.80;40.20;;;;;;5053772;28;20019;-65
2021/03/20 10:04:36;;;;;;;3.97;2.77;;;9.80;41.80;;;;;;5053678;28;20078;-66
2021/03/20 10:07:20;;;;;;;7.07;3.03;;;9.80;40.30;;;;;;5053614;28;20025;-66
2021/03/20 10:10:10;;;;;;;4.93;3.20;;;9.80;40.40;;;;;;5041465;28;20042;-66
2021/03/20 10:12:44;;;;;;;7.20;3.00;;;9.80;40.60;;;;;;5033305;28;20486;-66
2021/03/20 10:15:13;;;;;;;10.83;3.10;;;9.80;40.30;;;;;;5033605;28;20497;-67
2021/03/20 10:18:20;;;;;;;4.57;3.03;;;9.90;41.30;;;;;;5033370;28;20025;-66
2021/03/20 10:20:52;;;;;;;4.40;2.83;;;10.00;41.10;;;;;;5033600;28;20029;-74
2021/03/20 10:23:38;;;;;;;3.47;3.00;;;10.00;41.50;;;;;;5033558;28;20025;-75
2021/03/20 10:26:35;;;;;;;3.97;3.00;;;10.00;41.50;;;;;;5033500;28;20176;-65
2021/03/20 10:29:03;;;;;;;3.27;2.50;;;10.10;41.30;;;;;;5033551;28;20461;-66
2021/03/20 10:31:35;;;;;;;5.33;2.90;;;10.20;41.40;;;;;;5032600;28;20053;-66
2021/03/20 10:34:11;;;;;;;4.45;3.20;;;10.30;40.30;;;;;;5033384;28;20393;-73
2021/03/20 10:37:00;;;;;;;4.57;2.90;;;10.40;42.00;;;;;;5033429;28;20021;-68
2021/03/20 10:39:28;;;;;;;4.63;3.30;;;10.40;40.30;;;;;;5046126;28;20025;-67
2021/03/20 10:42:01;;;;;;;5.40;3.40;;;10.50;40.10;;;;;;5052935;28;20033;-67
2021/03/20 10:44:36;;;;;;;6.67;3.20;;;10.50;39.60;;;;;;5052490;28;20110;-67
2021/03/20 10:47:06;;;;;;;4.77;3.30;;;10.40;40.10;;;;;;5053099;28;20036;-68
2021/03/20 10:49:37;;;;;;;4.33;3.43;;;10.50;39.90;;;;;;5053019;28;20033;-67
2021/03/20 10:52:04;;;;;;;3.70;2.80;;;10.50;39.50;;;;;;5053135;28;20373;-67
2021/03/20 10:54:40;;;;;;;3.90;2.87;;;10.50;39.40;;;;;;5053259;28;20037;-67
2021/03/20 10:57:11;;;;;;;4.17;3.07;;;10.50;39.70;;;;;;5041519;28;20370;-68
2021/03/20 10:59:38;;;;;;;4.50;3.00;;;10.60;39.10;;;;;;5032054;28;20057;-68
2021/03/20 11:02:25;;;;;;;4.17;3.30;;;10.60;39.50;;;;;;5037936;28;20497;-69
2021/03/20 11:04:53;;;;;;;4.63;2.93;;;10.60;39.80;;;;;;5052884;28;20021;-69
2021/03/20 11:07:23;;;;;;;5.00;3.30;;;10.80;40.70;;;;;;5052992;28;20381;-68
2021/03/20 11:09:50;;;;;;;7.33;2.77;;;10.80;39.10;;;;;;5052848;28;20025;-68
2021/03/20 11:12:27;;;;;;;3.87;2.93;;;10.80;38.70;;;;;;5042187;28;20021;-68
2021/03/20 11:15:00;;;;;;;3.73;2.80;;;10.90;38.00;;;;;;5032917;28;20115;-68
2021/03/20 11:17:31;;;;;;;4.13;3.20;;;10.90;38.00;;;;;;5032569;28;20014;-67
2021/03/20 11:20:15;;;;;;;3.97;2.90;;;10.90;37.00;;;;;;5032538;28;20448;-65
2021/03/20 11:22:41;;;;;;;4.03;3.20;;;10.90;37.80;;;;;;5033056;28;20025;-65
2021/03/20 11:25:16;;;;;;;5.47;3.20;;;10.90;37.70;;;;;;5032906;28;20033;-65
2021/03/20 11:27:42;;;;;;;3.13;2.60;;;10.90;37.70;;;;;;5032795;28;20034;-65
2021/03/20 11:30:16;;;;;;;3.93;2.83;;;11.00;37.60;;;;;;5032677;28;20030;-65
2021/03/20 11:32:44;;;;;;;4.10;3.17;;;11.10;37.60;;;;;;5032569;28;20058;-68
2021/03/20 11:35:35;;;;;;;7.43;2.77;;;11.10;37.30;;;;;;5032834;28;20125;-67
2021/03/20 11:38:02;;;;;;;6.13;2.60;;;11.20;37.00;;;;;;5051246;28;20056;-65
2021/03/20 11:40:38;;;;;;;8.23;3.20;;;11.20;36.80;;;;;;5052564;28;20037;-66
2021/03/20 11:43:15;;;;;;;4.30;3.07;;;11.30;37.00;;;;;;5053186;28;20029;-66
2021/03/20 11:45:42;;;;;;;4.87;3.20;;;11.30;36.50;;;;;;5055944;28;20473;-65
2021/03/20 11:48:16;;;;;;;3.70;2.80;;;11.30;35.80;;;;;;5056228;28;20032;-65
2021/03/20 11:50:42;;;;;;;3.78;2.78;;;11.20;36.00;;;;;;5056228;28;20029;-65
2021/03/20 11:53:21;;;;;;;3.47;3.03;;;11.20;36.30;;;;;;5056285;28;20039;-65
2021/03/20 11:55:47;;;;;;;4.43;2.80;;;11.20;36.70;;;;;;5056276;28;20079;-65
2021/03/20 11:58:34;;;;;;;4.07;2.73;;;11.20;36.10;;;;;;5055832;28;20040;-65
2021/03/20 12:01:44;;;;;;;3.65;2.70;;;11.30;36.40;;;;;;5056047;28;20091;-66
2021/03/20 12:04:09;;;;;;;9.20;2.25;;;11.50;36.40;;;;;;5047828;28;20034;-66
2021/03/20 12:06:37;;;;;;;5.13;2.20;;;11.70;35.90;;;;;;5055916;28;20488;-66
2021/03/20 12:09:25;;;;;;;5.28;2.80;;;11.80;35.10;;;;;;5044833;28;20018;-66
2021/03/20 12:11:54;;;;;;;3.75;2.78;;;11.90;34.60;;;;;;5035001;28;20033;-66
2021/03/20 12:14:40;;;;;;;4.07;2.75;;;12.00;34.80;;;;;;5035642;28;20083;-66
2021/03/20 12:17:09;;;;;;;3.15;2.72;;;12.10;34.80;;;;;;5035868;28;20083;-66
2021/03/20 12:19:58;;;;;;;4.50;2.60;;;12.20;35.30;;;;;;5035797;28;20069;-66
2021/03/20 12:22:33;;;;;;;3.58;2.50;;;12.30;33.90;;;;;;5035637;28;20101;-66
2021/03/20 12:25:20;;;;;;;6.97;2.20;;;12.40;34.80;;;;;;5035726;28;20030;-65
2021/03/20 12:27:47;;;;;;;2.80;1.88;;;12.50;31.90;;;;;;5035594;28;20546;-65
2021/03/20 12:30:21;;;;;;;2.63;2.00;;;12.70;31.50;;;;;;5035544;28;20029;-67
2021/03/20 12:32:52;;;;;;;3.28;1.92;;;12.80;32.20;;;;;;5035377;28;20092;-66
2021/03/20 12:35:18;;;;;;;3.70;2.22;;;13.00;31.30;;;;;;5035609;28;20037;-66
2021/03/20 12:38:03;;;;;;;3.00;2.13;;;13.10;31.10;;;;;;5035494;28;20029;-70
2021/03/20 12:40:30;;;;;;;2.22;1.85;;;13.20;31.40;;;;;;5035487;28;20025;-69
2021/03/20 12:42:59;;;;;;;2.60;1.95;;;13.20;31.00;;;;;;5041683;28;20029;-68
2021/03/20 12:45:27;;;;;;;2.22;1.50;;;13.10;30.90;;;;;;5054918;28;20420;-67
2021/03/20 12:47:53;;;;;;;2.80;1.65;;;13.10;30.60;;;;;;5054244;28;20032;-67
2021/03/20 12:50:18;;;;;;;4.80;2.70;;;13.00;29.80;;;;;;5053414;28;20473;-67
2021/03/20 12:52:44;;;;;;;3.20;2.53;;;12.80;30.70;;;;;;5053728;28;20021;-67
2021/03/20 12:55:11;;;;;;;3.92;2.60;;;12.70;31.40;;;;;;5054078;28;20148;-70
2021/03/20 12:57:37;;;;;;;3.03;2.33;;;12.50;32.00;;;;;;5055140;28;20456;-66
2021/03/20 13:00:19;;;;;;;3.40;2.40;;;12.40;30.90;;;;;;5055102;28;20021;-67
2021/03/20 13:02:45;;;;;;;3.70;2.90;;;12.30;30.70;;;;;;5051227;28;20422;-66
2021/03/20 13:05:15;;;;;;;3.00;2.47;;;12.30;31.70;;;;;;5051928;28;20155;-66
2021/03/20 13:07:41;;;;;;;3.88;2.53;;;12.10;32.00;;;;;;5053339;28;20036;-67
2021/03/20 13:10:07;;;;;;;3.10;2.38;;;12.10;31.70;;;;;;5054517;28;20025;-66
2021/03/20 13:12:33;;;;;;;2.97;2.67;;;12.10;32.10;;;;;;5054742;28;20033;-66
2021/03/20 13:14:58;;;;;;;3.90;2.53;;;12.10;32.70;;;;;;5054609;28;20073;-66
2021/03/20 13:17:24;;;;;;;2.45;2.15;;;11.90;32.70;;;;;;5054600;28;20021;-66
2021/03/20 13:19:50;;;;;;;5.35;2.80;;;11.90;33.00;;;;;;5054661;28;20112;-66
2021/03/20 13:22:16;;;;;;;3.35;2.63;;;11.80;33.40;;;;;;5054437;28;20021;-66
2021/03/20 13:24:42;;;;;;;3.08;2.53;;;11.70;34.10;;;;;;5054431;28;20033;-66
2021/03/20 13:27:08;;;;;;;6.60;2.60;;;11.60;34.70;;;;;;5054564;28;20032;-66
2021/03/20 13:29:34;;;;;;;6.85;2.95;;;11.60;34.80;;;;;;5054363;28;20029;-66
2021/03/20 13:32:00;;;;;;;7.35;3.13;;;11.50;35.00;;;;;;5053844;28;20075;-66
2021/03/20 13:34:26;;;;;;;3.90;2.65;;;11.40;35.20;;;;;;5054329;28;20052;-70
2021/03/20 13:36:51;;;;;;;3.28;2.60;;;11.20;36.00;;;;;;5054242;28;20029;-67
2021/03/20 13:39:17;;;;;;;3.65;2.88;;;11.10;37.00;;;;;;5051919;28;20803;-66